Terminal Aerodrome Forecast
Issued by NWS

Home | Current Version | Previous Version | Text Only | Print | Product List | Glossary On
Versions: 1 2 3 4 5 6 7 8 9 10 11 12 13 14 15 16
000
FTUS42 KGSP 281738
TAFGMU
TAF
KGMU 281738Z 2818/0118 22009KT P6SM SCT040 BKN150
     FM282200 22005KT P6SM VCSH OVC045
     FM010600 21008KT P6SM BKN015
     FM011000 21008KT P6SM BKN007
     FM011500 22015G25KT P6SM SCT020 BKN150=

USA.gov is the U.S. government's official web portal to all federal, state and local government web resources and services.